Time;durP1;ratioP1;P1;durP2;ratioP2;P2;SDS_P1;SDS_P2;PMS_P1;PMS_P2;Temp;Humidity;BMP_temperature;BMP_pressure;BME280_temperature;BME280_humidity;BME280_pressure;Samples;Min_cycle;Max_cycle;Signal;HPM_P1;HPM_P2
2023/03/29 00:01:35;;;;;;;2.90;2.63;;;;;;;-1.06;74.24;61890.41;5028644;28;20265;-77
2023/03/29 00:04:04;;;;;;;7.03;3.03;;;;;;;-1.04;74.01;61889.97;5042635;28;20364;-75
2023/03/29 00:06:31;;;;;;;2.45;2.35;;;;;;;-1.00;72.76;61894.06;5026752;28;20300;-77
2023/03/29 00:09:00;;;;;;;3.65;2.40;;;;;;;-1.01;72.21;61898.03;5035371;28;20209;-77
2023/03/29 00:11:27;;;;;;;3.63;3.10;;;;;;;-1.03;71.89;61891.50;5047298;28;20225;-77
2023/03/29 00:13:55;;;;;;;3.70;2.90;;;;;;;-1.00;71.80;61899.06;5045995;28;20281;-78
2023/03/29 00:16:22;;;;;;;2.22;2.13;;;;;;;-1.05;73.45;61891.44;5046827;28;20193;-75
2023/03/29 00:18:49;;;;;;;3.38;3.08;;;;;;;-1.06;74.24;61890.41;5046186;28;20441;-76
2023/03/29 00:21:17;;;;;;;4.25;3.47;;;;;;;-1.11;74.11;61888.31;5046869;28;20214;-77
2023/03/29 00:23:45;;;;;;;3.42;2.88;;;;;;;-1.08;71.95;61885.84;5046563;28;20233;-77
2023/03/29 00:26:11;;;;;;;3.08;2.78;;;;;;;-1.07;70.17;61889.88;5044985;28;20267;-75
2023/03/29 00:28:39;;;;;;;3.40;3.10;;;;;;;-1.04;69.57;61892.47;5045318;28;20206;-78
2023/03/29 00:31:08;;;;;;;3.25;2.50;;;;;;;-1.04;68.52;61892.47;5044236;28;20222;-78
2023/03/29 00:33:35;;;;;;;3.60;2.67;;;;;;;-1.08;68.93;61883.38;5047844;28;20280;-76
2023/03/29 00:36:03;;;;;;;2.60;2.50;;;;;;;-1.02;69.65;61895.03;5040874;28;20222;-78
2023/03/29 00:38:32;;;;;;;3.20;3.00;;;;;;;-1.04;69.03;61895.47;5035465;28;20210;-75
2023/03/29 00:40:59;;;;;;;3.38;3.17;;;;;;;-1.19;68.53;61878.13;5044573;28;20206;-77
2023/03/29 00:43:26;;;;;;;2.75;2.55;;;;;;;-1.12;67.57;61884.78;5047363;28;20520;-77
2023/03/29 00:45:53;;;;;;;4.40;3.08;;;;;;;-1.04;66.65;61892.97;5032854;28;20207;-76
2023/03/29 00:48:23;;;;;;;3.75;2.55;;;;;;;-1.06;66.15;61887.91;5026711;28;20223;-77
2023/03/29 00:50:56;;;;;;;2.72;2.63;;;;;;;-1.05;65.88;61891.44;5046415;28;20202;-76
2023/03/29 00:53:27;;;;;;;2.60;2.40;;;;;;;-1.02;65.68;61897.53;5044035;28;20237;-76
2023/03/29 00:56:00;;;;;;;4.45;2.83;;;;;;;-1.10;65.67;61884.31;5030284;28;20217;-76
2023/03/29 00:58:32;;;;;;;3.00;2.80;;;;;;;-1.06;65.14;61890.94;5027243;28;20229;-76
2023/03/29 01:01:07;;;;;;;2.05;1.95;;;;;;;-1.05;64.76;61891.44;5028934;28;20237;-77
2023/03/29 01:03:40;;;;;;;7.32;2.95;;;;;;;-1.03;64.72;61900.97;5027660;28;20280;-75
2023/03/29 01:06:10;;;;;;;3.13;2.92;;;;;;;-1.05;64.78;61889.44;5025827;28;20191;-76
2023/03/29 01:08:44;;;;;;;2.90;2.33;;;;;;;-1.05;64.89;61888.94;5026210;28;20206;-76
2023/03/29 01:11:17;;;;;;;3.08;2.85;;;;;;;-1.05;66.55;61886.44;5025735;28;20245;-75
2023/03/29 01:13:49;;;;;;;2.72;2.53;;;;;;;-1.10;67.49;61883.81;5041909;28;20240;-77
2023/03/29 01:16:19;;;;;;;3.58;3.28;;;;;;;-1.16;68.26;61881.19;5046336;28;20190;-76
2023/03/29 01:18:47;;;;;;;2.28;2.17;;;;;;;-1.13;67.57;61883.25;5048132;28;20190;-75
2023/03/29 01:21:22;;;;;;;3.03;2.85;;;;;;;-1.22;67.28;61870.06;5042843;28;20217;-74
2023/03/29 01:24:12;;;;;;;2.97;2.78;;;;;;;-1.22;67.20;61870.06;5045600;28;20293;-77
2023/03/29 01:26:54;;;;;;;3.95;2.75;;;;;;;-1.24;67.58;61875.00;5021785;28;20221;-75
2023/03/29 01:29:27;;;;;;;2.55;2.33;;;;;;;-1.23;68.26;61871.03;5046824;28;20194;-77
2023/03/29 01:32:00;;;;;;;2.88;2.78;;;;;;;-1.25;68.31;61874.50;5041158;28;20230;-76
2023/03/29 01:34:34;;;;;;;5.88;2.63;;;;;;;-1.25;68.12;61871.47;5040802;28;20209;-76
2023/03/29 01:37:07;;;;;;;2.85;2.72;;;;;;;-1.29;68.99;61867.91;5025793;28;20226;-77
2023/03/29 01:39:35;;;;;;;2.78;2.58;;;;;;;-1.33;69.04;61863.28;5032896;28;20202;-76
2023/03/29 01:42:21;;;;;;;5.15;3.08;;;;;;;-1.32;68.95;61862.34;5045577;28;20214;-76
2023/03/29 01:44:56;;;;;;;3.70;2.78;;;;;;;-1.35;68.68;61863.75;5026088;28;20584;-76
2023/03/29 01:47:29;;;;;;;4.75;2.22;;;;;;;-1.35;69.32;61859.25;5026095;28;20218;-77
2023/03/29 01:50:05;;;;;;;3.75;3.13;;;;;;;-1.32;68.98;61862.34;5042507;28;20459;-75
2023/03/29 01:52:36;;;;;;;3.05;2.83;;;;;;;-1.33;68.71;61858.81;5039701;28;20229;-77
2023/03/29 01:55:10;;;;;;;3.88;3.47;;;;;;;-1.32;69.08;61861.81;5025551;28;20547;-77
2023/03/29 01:57:40;;;;;;;3.03;2.63;;;;;;;-1.38;68.67;61860.69;5033791;28;20249;-77
2023/03/29 02:00:13;;;;;;;3.17;2.38;;;;;;;-1.33;67.67;61866.28;5045652;28;20206;-76
2023/03/29 02:02:44;;;;;;;7.20;2.60;;;;;;;-1.27;66.09;61864.44;5046772;28;20246;-76
2023/03/29 02:05:13;;;;;;;3.20;2.42;;;;;;;-1.27;63.85;61871.91;5046598;28;20202;-76
2023/03/29 02:07:42;;;;;;;2.42;2.20;;;;;;;-1.30;63.95;61864.38;5034460;28;20254;-76
2023/03/29 02:10:11;;;;;;;2.22;2.13;;;;;;;-1.26;63.78;61870.97;5028553;28;20219;-76
2023/03/29 02:12:39;;;;;;;3.05;2.85;;;;;;;-1.29;64.24;61865.41;5025920;28;20258;-77
2023/03/29 02:15:13;;;;;;;3.17;2.47;;;;;;;-1.21;62.91;61873.06;5025302;28;20249;-77
2023/03/29 02:17:42;;;;;;;1.92;1.90;;;;;;;-1.15;63.11;61884.22;5034112;28;20245;-75
2023/03/29 02:20:13;;;;;;;2.47;2.28;;;;;;;-1.17;64.09;61879.16;5047329;28;20205;-78
2023/03/29 02:22:49;;;;;;;2.67;2.58;;;;;;;-1.28;64.76;61860.91;5037979;28;20223;-77
2023/03/29 02:25:16;;;;;;;2.53;2.33;;;;;;;-1.26;65.45;61867.97;5039064;28;20197;-77
2023/03/29 02:27:45;;;;;;;2.25;2.15;;;;;;;-1.22;64.93;61874.53;5048516;28;20255;-78
2023/03/29 02:30:15;;;;;;;2.83;2.58;;;;;;;-1.31;65.37;61867.81;5047307;28;20403;-78
2023/03/29 02:32:49;;;;;;;2.80;2.60;;;;;;;-1.29;65.27;61864.88;5040156;28;20237;-79
2023/03/29 02:35:20;;;;;;;3.58;2.20;;;;;;;-1.25;63.90;61868.97;5044110;28;20259;-75
2023/03/29 02:37:51;;;;;;;2.15;2.05;;;;;;;-1.28;64.45;61863.41;5045928;28;20608;-76
2023/03/29 02:40:19;;;;;;;3.08;2.88;;;;;;;-1.28;65.77;61865.91;5045032;28;20211;-77
2023/03/29 02:42:48;;;;;;;2.33;2.13;;;;;;;-1.30;66.06;61864.38;5034408;28;20218;-77
2023/03/29 02:45:18;;;;;;;2.05;1.92;;;;;;;-1.31;67.06;61868.34;5045070;28;20257;-77
2023/03/29 02:47:50;;;;;;;1.98;1.88;;;;;;;-1.32;66.74;61864.81;5047485;28;20281;-77
2023/03/29 02:50:18;;;;;;;2.47;2.38;;;;;;;-1.31;66.97;61863.34;5043569;28;20425;-76
2023/03/29 02:52:53;;;;;;;3.35;2.55;;;;;;;-1.35;67.60;61863.75;5042860;28;20526;-76
2023/03/29 02:55:24;;;;;;;2.60;2.40;;;;;;;-1.41;68.34;61853.13;5046605;28;20462;-75
2023/03/29 02:57:51;;;;;;;2.00;1.90;;;;;;;-1.37;69.30;61859.19;5043931;28;20214;-76
2023/03/29 03:00:21;;;;;;;2.17;2.08;;;;;;;-1.41;68.95;61855.63;5042590;28;20201;-77
2023/03/29 03:02:49;;;;;;;2.05;1.95;;;;;;;-1.43;69.41;61853.03;5045006;28;20233;-74
2023/03/29 03:05:17;;;;;;;2.70;2.50;;;;;;;-1.48;69.70;61845.94;5048321;28;20204;-75
2023/03/29 03:07:45;;;;;;;1.88;1.77;;;;;;;-1.44;68.29;61852.53;5044146;28;20221;-77
2023/03/29 03:10:12;;;;;;;2.50;2.38;;;;;;;-1.44;68.60;61855.03;5043829;28;20238;-75
2023/03/29 03:12:39;;;;;;;4.57;2.38;;;;;;;-1.44;69.48;61852.53;5046040;28;20276;-76
2023/03/29 03:15:07;;;;;;;2.55;2.42;;;;;;;-1.49;71.12;61844.94;5043916;28;20218;-76
2023/03/29 03:17:38;;;;;;;2.05;1.95;;;;;;;-1.53;71.42;61840.84;5035150;28;20222;-77
2023/03/29 03:20:11;;;;;;;2.45;2.35;;;;;;;-1.53;69.21;61845.31;5047352;28;20213;-75
2023/03/29 03:22:39;;;;;;;5.22;3.00;;;;;;;-1.78;69.07;61815.28;5049467;28;20261;-77
2023/03/29 03:25:09;;;;;;;3.00;2.72;;;;;;;-1.48;69.31;61847.94;5052182;28;20221;-78
2023/03/29 03:27:36;;;;;;;2.50;2.30;;;;;;;-1.54;71.34;61836.81;5049209;28;20222;-76
2023/03/29 03:30:05;;;;;;;2.28;2.17;;;;;;;-1.52;72.08;61841.34;5048612;28;20198;-76
2023/03/29 03:32:32;;;;;;;6.38;2.67;;;;;;;-1.55;70.75;61841.28;5048437;28;20479;-76
2023/03/29 03:35:01;;;;;;;2.42;2.33;;;;;;;-1.58;70.73;61835.22;5046520;28;20230;-78
2023/03/29 03:37:28;;;;;;;2.25;2.15;;;;;;;-1.58;70.26;61840.72;5046688;28;20288;-76
2023/03/29 03:39:55;;;;;;;2.40;2.20;;;;;;;-1.59;69.41;61836.69;5049232;28;20236;-77
2023/03/29 03:42:22;;;;;;;2.20;2.10;;;;;;;-1.59;67.76;61837.19;5046613;28;20349;-77
2023/03/29 03:44:49;;;;;;;2.78;2.58;;;;;;;-1.54;68.40;61841.81;5035555;28;20525;-77
2023/03/29 03:47:16;;;;;;;2.50;2.30;;;;;;;-1.57;67.62;61834.25;5038055;28;20222;-75
2023/03/29 03:49:43;;;;;;;4.20;2.47;;;;;;;-1.57;67.09;61836.25;5046333;28;20209;-76
2023/03/29 03:52:12;;;;;;;3.80;2.45;;;;;;;-1.53;66.55;61840.84;5046789;28;20262;-77
2023/03/29 03:54:39;;;;;;;2.17;1.90;;;;;;;-1.53;66.65;61840.84;5034072;28;20245;-77
2023/03/29 03:57:06;;;;;;;1.80;1.70;;;;;;;-1.53;67.14;61840.84;5042816;28;20230;-78
2023/03/29 03:59:34;;;;;;;2.17;2.08;;;;;;;-1.52;67.18;61846.34;5037268;28;20202;-77
2023/03/29 04:02:01;;;;;;;3.45;1.95;;;;;;;-1.57;66.94;61839.22;5044850;28;20218;-76
2023/03/29 04:04:28;;;;;;;1.33;1.33;;;;;;;-1.61;66.59;61837.13;5040603;28;20210;-76
2023/03/29 04:07:01;;;;;;;3.80;1.95;;;;;;;-1.56;65.63;61842.75;5037902;28;20238;-75
2023/03/29 04:09:30;;;;;;;2.25;2.15;;;;;;;-1.56;65.46;61835.28;5048056;28;20273;-76
2023/03/29 04:11:58;;;;;;;1.85;1.75;;;;;;;-1.55;64.36;61841.28;5045478;28;20229;-77
2023/03/29 04:14:25;;;;;;;2.38;1.90;;;;;;;-1.52;63.33;61843.84;5046614;28;20237;-75
2023/03/29 04:16:52;;;;;;;1.90;1.80;;;;;;;-1.56;61.77;61842.25;5046229;28;20233;-76
2023/03/29 04:19:20;;;;;;;2.05;1.92;;;;;;;-1.51;61.29;61842.88;5044933;28;20203;-76
2023/03/29 04:21:48;;;;;;;1.55;1.55;;;;;;;-1.47;60.28;61846.47;5033764;28;20322;-78
2023/03/29 04:24:16;;;;;;;1.98;1.88;;;;;;;-1.42;60.64;61849.09;5043838;28;20206;-77
2023/03/29 04:26:46;;;;;;;1.90;1.80;;;;;;;-1.48;59.32;61848.44;5041126;28;20226;-74
2023/03/29 04:29:13;;;;;;;1.33;1.23;;;;;;;-1.46;58.15;61852.47;5041609;28;20217;-76
2023/03/29 04:31:40;;;;;;;1.85;1.75;;;;;;;-1.44;58.73;61850.06;5047840;28;20399;-77
2023/03/29 04:34:07;;;;;;;1.52;1.42;;;;;;;-1.44;59.08;61850.06;5045669;28;20229;-76
2023/03/29 04:36:34;;;;;;;2.30;1.60;;;;;;;-1.37;58.85;61854.72;5029214;28;20241;-76
2023/03/29 04:39:03;;;;;;;3.90;1.50;;;;;;;-1.36;59.05;61860.72;5028946;28;20206;-75
2023/03/29 04:41:31;;;;;;;1.70;1.60;;;;;;;-1.30;59.26;61871.88;5029796;28;20223;-76
2023/03/29 04:44:02;;;;;;;2.97;1.52;;;;;;;-1.31;59.12;61873.34;5035851;28;20522;-77
2023/03/29 04:46:29;;;;;;;7.43;1.88;;;;;;;-1.28;59.29;61863.41;5027385;28;20531;-75
2023/03/29 04:48:57;;;;;;;1.90;1.80;;;;;;;-1.30;58.98;61863.88;5027726;28;20417;-76
2023/03/29 04:51:24;;;;;;;2.13;2.00;;;;;;;-1.21;59.18;61873.06;5044646;28;20202;-77
2023/03/29 04:53:51;;;;;;;1.15;1.15;;;;;;;-1.20;58.96;61877.09;5028759;28;20297;-78
2023/03/29 04:56:18;;;;;;;1.45;1.42;;;;;;;-1.19;59.59;61878.13;5030273;28;20195;-75
2023/03/29 04:58:45;;;;;;;4.20;2.45;;;;;;;-1.19;60.09;61875.09;5042593;28;20233;-76
2023/03/29 05:01:13;;;;;;;1.95;1.85;;;;;;;-1.19;59.46;61877.59;5042288;28;20210;-74
2023/03/29 05:03:40;;;;;;;2.88;1.98;;;;;;;-1.12;59.79;61879.28;5026294;28;20500;-77
2023/03/29 05:06:10;;;;;;;2.60;2.40;;;;;;;-1.11;58.34;61888.31;5027746;28;20229;-76
2023/03/29 05:08:39;;;;;;;2.22;1.90;;;;;;;-1.04;58.35;61894.94;5038163;28;20233;-75
2023/03/29 05:11:07;;;;;;;1.55;1.45;;;;;;;-0.93;58.38;61901.22;5045037;28;20202;-76
2023/03/29 05:13:34;;;;;;;1.80;1.70;;;;;;;-0.90;57.34;61902.31;5047664;28;20285;-76
2023/03/29 05:16:02;;;;;;;4.38;1.92;;;;;;;-0.84;57.87;61910.94;5046444;28;20194;-76
2023/03/29 05:18:31;;;;;;;2.92;1.95;;;;;;;-0.82;56.56;61915.50;5047055;28;20246;-76
2023/03/29 05:20:59;;;;;;;2.40;1.73;;;;;;;-0.74;56.43;61925.69;5044310;28;20206;-76
2023/03/29 05:23:26;;;;;;;1.27;1.17;;;;;;;-0.77;55.74;61925.09;5047829;28;20534;-74
2023/03/29 05:25:53;;;;;;;1.90;1.80;;;;;;;-0.74;56.23;61926.19;5044718;28;20218;-76
2023/03/29 05:28:21;;;;;;;3.50;1.70;;;;;;;-0.72;56.40;61925.72;5045311;28;20230;-76
2023/03/29 05:30:50;;;;;;;1.70;1.60;;;;;;;-0.79;57.35;61918.03;5047608;28;20198;-77
2023/03/29 05:33:17;;;;;;;2.03;1.92;;;;;;;-0.90;58.71;61904.81;5048225;28;20229;-76
2023/03/29 05:35:45;;;;;;;1.75;1.42;;;;;;;-0.99;58.98;61895.59;5045784;28;20225;-75
2023/03/29 05:38:12;;;;;;;3.83;2.50;;;;;;;-0.84;59.55;61912.94;5047457;28;20230;-77
2023/03/29 05:40:40;;;;;;;1.98;1.88;;;;;;;-0.72;58.94;61925.22;5048010;28;20495;-76
2023/03/29 05:43:08;;;;;;;2.58;2.38;;;;;;;-0.71;59.78;61926.75;5044833;28;20285;-77
2023/03/29 05:45:35;;;;;;;4.60;2.10;;;;;;;-0.54;59.03;61946.16;5045918;28;20218;-77
2023/03/29 05:48:02;;;;;;;2.40;2.30;;;;;;;-0.76;59.46;61918.63;5032330;28;20218;-74
2023/03/29 05:50:29;;;;;;;3.70;2.35;;;;;;;-0.43;59.97;61957.94;5029862;28;20202;-75
2023/03/29 05:52:58;;;;;;;2.25;2.15;;;;;;;-0.13;58.15;61988.66;5038112;28;20293;-74
2023/03/29 05:55:24;;;;;;;1.83;1.75;;;;;;;0.05;57.80;62001.59;5044162;28;20226;-77
2023/03/29 05:57:51;;;;;;;1.88;1.77;;;;;;;0.08;57.37;62001.66;5061802;28;20218;-76
2023/03/29 06:00:22;;;;;;;2.47;1.98;;;;;;;-0.11;57.96;61983.22;5042139;28;20216;-74
2023/03/29 06:02:51;;;;;;;1.90;1.80;;;;;;;-0.28;57.91;61968.31;5043133;28;20534;-75
2023/03/29 06:05:18;;;;;;;2.65;2.00;;;;;;;-0.23;59.50;61972.91;5042845;28;20264;-76
2023/03/29 06:07:47;;;;;;;2.00;1.83;;;;;;;-0.49;58.81;61948.78;5025364;28;20222;-74
2023/03/29 06:10:16;;;;;;;4.30;2.45;;;;;;;-0.33;59.34;61965.16;5028789;28;20217;-77
2023/03/29 06:12:44;;;;;;;2.10;2.00;;;;;;;-0.20;58.72;61978.47;5041745;28;20223;-77
2023/03/29 06:15:12;;;;;;;2.20;2.00;;;;;;;-0.16;57.66;61978.09;5045941;28;20236;-76
2023/03/29 06:17:39;;;;;;;0.85;0.85;;;;;;;-0.04;54.83;61997.38;5044697;28;20531;-75
2023/03/29 06:20:09;;;;;;;3.97;1.48;;;;;;;0.12;54.81;62008.78;5044210;28;20205;-77
2023/03/29 06:22:36;;;;;;;1.77;1.65;;;;;;;0.41;53.82;62037.97;5045949;28;20225;-77
2023/03/29 06:25:04;;;;;;;2.72;1.90;;;;;;;0.45;53.13;62045.09;5047834;28;20248;-78
2023/03/29 06:27:32;;;;;;;3.88;1.58;;;;;;;0.53;52.40;62053.31;5045519;28;20233;-76
2023/03/29 06:29:59;;;;;;;2.10;1.58;;;;;;;0.44;52.62;62049.06;5047058;28;20202;-79
2023/03/29 06:32:27;;;;;;;2.65;1.88;;;;;;;0.52;53.45;62052.25;5045466;28;20260;-76
2023/03/29 06:34:54;;;;;;;1.65;1.55;;;;;;;0.68;53.81;62065.66;5039454;28;20535;-75
2023/03/29 06:37:22;;;;;;;1.90;1.80;;;;;;;0.58;52.71;62053.41;5044657;28;20226;-78
2023/03/29 06:39:51;;;;;;;1.83;1.70;;;;;;;0.71;53.04;62073.72;5045785;28;20518;-77
2023/03/29 06:42:19;;;;;;;1.98;1.80;;;;;;;0.56;52.80;62055.84;5045691;28;20218;-77
2023/03/29 06:44:48;;;;;;;2.00;1.63;;;;;;;0.69;53.63;62072.19;5045344;28;20229;-75
2023/03/29 06:47:16;;;;;;;2.55;1.73;;;;;;;0.72;52.31;62069.75;5033272;28;20211;-77
2023/03/29 06:49:43;;;;;;;4.57;2.08;;;;;;;0.69;52.20;62069.69;5043782;28;20210;-75
2023/03/29 06:52:11;;;;;;;2.33;1.60;;;;;;;0.55;52.77;62059.84;5037356;28;20272;-75
2023/03/29 06:54:38;;;;;;;1.67;1.60;;;;;;;0.66;52.72;62069.13;5029785;28;20237;-76
2023/03/29 06:57:06;;;;;;;3.03;1.48;;;;;;;0.68;52.59;62066.19;5032762;28;20226;-75
2023/03/29 06:59:34;;;;;;;1.98;1.77;;;;;;;0.73;52.81;62073.28;5029475;28;20229;-73
2023/03/29 07:02:02;;;;;;;1.60;1.50;;;;;;;0.73;52.54;62073.81;5031070;28;20213;-77
2023/03/29 07:04:31;;;;;;;2.15;1.50;;;;;;;0.82;53.04;62080.53;5037123;28;20263;-77
2023/03/29 07:07:02;;;;;;;2.22;1.67;;;;;;;0.94;53.01;62094.81;5044442;28;20217;-75
2023/03/29 07:09:29;;;;;;;2.05;1.95;;;;;;;1.23;51.29;62121.53;5042445;28;20210;-76
2023/03/29 07:11:57;;;;;;;4.35;1.88;;;;;;;1.37;49.77;62140.94;5039716;28;20217;-76
2023/03/29 07:14:27;;;;;;;1.77;1.67;;;;;;;1.27;50.40;62126.19;5046054;28;20320;-75
2023/03/29 07:16:54;;;;;;;1.67;1.58;;;;;;;1.24;50.53;62125.09;5049019;28;20260;-75
2023/03/29 07:19:24;;;;;;;1.55;1.45;;;;;;;1.29;50.84;62127.72;5045085;28;20416;-75
2023/03/29 07:21:52;;;;;;;1.45;1.35;;;;;;;1.45;49.29;62142.13;5040633;28;20607;-75
2023/03/29 07:24:19;;;;;;;2.17;1.98;;;;;;;1.42;49.69;62143.56;5043165;28;20202;-76
2023/03/29 07:26:47;;;;;;;3.10;2.13;;;;;;;1.48;49.68;62150.22;5038488;28;20218;-77
2023/03/29 07:29:14;;;;;;;1.65;1.52;;;;;;;1.36;49.58;62139.91;5051111;28;20194;-76
2023/03/29 07:31:42;;;;;;;3.50;1.75;;;;;;;1.47;48.92;62148.69;5046369;28;20214;-76
2023/03/29 07:34:10;;;;;;;2.08;1.60;;;;;;;1.57;48.35;62153.94;5041879;28;20234;-75
2023/03/29 07:36:42;;;;;;;1.73;1.60;;;;;;;1.55;48.38;62156.91;5039518;28;20397;-76
2023/03/29 07:39:11;;;;;;;3.92;1.30;;;;;;;1.71;48.47;62173.81;5033178;28;20218;-76
2023/03/29 07:41:38;;;;;;;2.50;1.35;;;;;;;1.75;48.39;62175.44;5032808;28;20222;-77
2023/03/29 07:44:07;;;;;;;1.50;1.40;;;;;;;1.96;49.09;62198.97;5044779;28;20220;-76
2023/03/29 07:46:35;;;;;;;1.50;1.40;;;;;;;2.01;48.21;62202.13;5046127;28;20261;-77
2023/03/29 07:49:03;;;;;;;4.47;1.77;;;;;;;1.99;48.29;62205.09;5045284;28;20186;-75
2023/03/29 07:51:30;;;;;;;2.42;1.30;;;;;;;1.85;47.86;62185.69;5040303;28;20228;-76
2023/03/29 07:53:59;;;;;;;1.27;1.10;;;;;;;1.86;47.25;62188.72;5043215;28;20206;-76
2023/03/29 07:56:25;;;;;;;1.40;1.40;;;;;;;1.67;46.33;62164.19;5041533;28;20217;-74
2023/03/29 07:58:52;;;;;;;2.05;1.17;;;;;;;1.55;47.38;62154.41;5044924;28;20210;-76
2023/03/29 08:01:20;;;;;;;1.17;1.08;;;;;;;1.53;47.41;62157.88;5043057;28;20200;-74
2023/03/29 08:03:47;;;;;;;2.45;1.40;;;;;;;1.65;48.24;62167.16;5037857;28;20538;-76
2023/03/29 08:06:15;;;;;;;1.42;1.23;;;;;;;1.69;48.41;62169.25;5040598;28;20202;-74
2023/03/29 08:08:41;;;;;;;1.58;1.48;;;;;;;1.69;48.30;62173.78;5037551;28;20225;-75
2023/03/29 08:11:10;;;;;;;1.48;1.38;;;;;;;1.82;45.71;62184.59;5047238;28;20225;-74
2023/03/29 08:13:37;;;;;;;2.35;1.10;;;;;;;1.83;45.70;62183.63;5033559;28;20248;-75
2023/03/29 08:16:04;;;;;;;1.73;1.10;;;;;;;1.94;45.82;62199.97;5039976;28;20214;-75
2023/03/29 08:18:31;;;;;;;2.40;1.48;;;;;;;2.09;46.69;62212.31;5040323;28;20202;-75
2023/03/29 08:20:58;;;;;;;3.25;1.27;;;;;;;2.26;47.12;62229.78;5040831;28;20328;-75
2023/03/29 08:23:26;;;;;;;1.25;1.25;;;;;;;2.58;46.17;62260.16;5040744;28;20268;-77
2023/03/29 08:25:52;;;;;;;1.25;1.25;;;;;;;2.58;45.62;62265.16;5044430;28;20194;-76
2023/03/29 08:28:21;;;;;;;1.30;1.25;;;;;;;2.67;44.49;62268.88;5040154;28;20281;-75
2023/03/29 08:30:48;;;;;;;1.30;1.23;;;;;;;2.51;44.18;62250.44;5042280;28;20404;-78
2023/03/29 08:33:15;;;;;;;1.08;1.02;;;;;;;2.45;44.16;62251.31;5040345;28;20230;-75
2023/03/29 08:35:42;;;;;;;1.05;1.05;;;;;;;2.54;44.87;62258.03;5042125;28;20233;-77
2023/03/29 08:38:09;;;;;;;0.90;0.90;;;;;;;2.52;42.27;62253.47;5043760;28;20261;-76
2023/03/29 08:40:37;;;;;;;0.98;0.98;;;;;;;2.69;43.64;62279.00;5038406;28;20202;-75
2023/03/29 08:43:31;;;;;;;1.20;1.10;;;;;;;2.61;41.90;62263.22;5040413;28;20256;-77
2023/03/29 08:46:08;;;;;;;1.05;1.00;;;;;;;2.72;42.91;62279.03;5043739;28;20250;-76
2023/03/29 08:48:40;;;;;;;1.00;1.00;;;;;;;2.54;43.26;62258.03;5038450;28;20198;-77
2023/03/29 08:51:17;;;;;;;1.17;1.17;;;;;;;2.40;41.22;62241.16;5042998;28;20206;-77
2023/03/29 08:53:51;;;;;;;3.30;1.17;;;;;;;2.56;41.72;62260.06;5044806;28;20379;-77
2023/03/29 08:56:24;;;;;;;1.75;1.10;;;;;;;2.74;40.80;62274.06;5045985;28;20229;-75
2023/03/29 08:58:54;;;;;;;1.65;1.23;;;;;;;2.79;41.64;62289.25;5038217;28;20407;-74
2023/03/29 09:01:23;;;;;;;0.98;0.98;;;;;;;2.79;39.86;62284.25;5040976;28;20270;-76
2023/03/29 09:04:00;;;;;;;1.38;1.08;;;;;;;2.81;42.62;62288.81;5042359;28;20191;-73
2023/03/29 09:06:27;;;;;;;1.35;0.85;;;;;;;2.99;42.52;62301.75;5034803;28;20482;-76
2023/03/29 09:08:54;;;;;;;1.95;1.15;;;;;;;2.97;43.03;62302.22;5041927;28;20585;-74
2023/03/29 09:11:37;;;;;;;1.83;1.20;;;;;;;3.11;40.42;62319.63;5041913;28;20332;-75
2023/03/29 09:14:23;;;;;;;1.05;0.90;;;;;;;3.33;41.63;62339.22;5038922;28;20234;-75
2023/03/29 09:16:56;;;;;;;1.25;1.15;;;;;;;3.53;41.52;62365.34;5038030;28;20246;-75
2023/03/29 09:19:34;;;;;;;1.50;1.40;;;;;;;3.69;41.42;62375.72;5039986;28;20212;-76
2023/03/29 09:22:14;;;;;;;1.05;0.90;;;;;;;3.36;41.43;62347.34;5040201;28;20248;-76
2023/03/29 09:24:52;;;;;;;0.85;0.82;;;;;;;3.46;41.00;62353.09;5039896;28;20206;-74
2023/03/29 09:27:26;;;;;;;4.50;1.08;;;;;;;3.47;41.19;62358.63;5038664;28;20245;-78
2023/03/29 09:30:09;;;;;;;3.63;1.45;;;;;;;3.54;39.10;62358.28;5041753;28;20232;-76
2023/03/29 09:32:44;;;;;;;1.35;1.23;;;;;;;3.60;37.89;62366.97;5040176;28;20245;-75
2023/03/29 09:35:21;;;;;;;1.35;1.10;;;;;;;3.54;38.99;62361.31;5041322;28;20229;-75
2023/03/29 09:37:50;;;;;;;1.27;1.08;;;;;;;3.64;38.88;62370.59;5039880;28;20225;-76
2023/03/29 09:40:22;;;;;;;0.70;0.70;;;;;;;3.82;39.30;62391.59;5040563;28;20226;-76
2023/03/29 09:42:51;;;;;;;0.93;0.93;;;;;;;3.84;38.77;62393.66;5041128;28;20507;-77
2023/03/29 09:45:20;;;;;;;1.10;1.08;;;;;;;3.89;38.68;62396.28;5034987;28;20210;-75
2023/03/29 09:47:52;;;;;;;0.90;0.90;;;;;;;3.98;38.60;62405.53;5038935;28;20230;-76
2023/03/29 09:50:23;;;;;;;0.85;0.85;;;;;;;3.95;39.43;62402.97;5041282;28;20228;-78
2023/03/29 09:52:50;;;;;;;1.20;0.90;;;;;;;4.06;40.22;62413.78;5040111;28;20281;-77
2023/03/29 09:55:26;;;;;;;2.53;1.40;;;;;;;4.18;39.54;62426.13;5041557;28;20264;-77
2023/03/29 09:57:53;;;;;;;2.03;1.00;;;;;;;4.25;37.57;62430.78;5042665;28;20217;-75
2023/03/29 10:00:22;;;;;;;1.00;1.00;;;;;;;4.18;36.99;62423.59;5039455;28;20364;-76
2023/03/29 10:02:52;;;;;;;0.95;0.80;;;;;;;4.38;36.55;62447.19;5039657;28;20225;-77
2023/03/29 10:05:20;;;;;;;0.60;0.60;;;;;;;4.20;34.64;62426.19;5040169;28;20198;-75
2023/03/29 10:07:53;;;;;;;2.25;0.70;;;;;;;4.33;35.29;62441.56;5040512;28;20435;-77
2023/03/29 10:10:23;;;;;;;0.80;0.80;;;;;;;4.36;34.44;62442.13;5038703;28;20205;-76
2023/03/29 10:12:54;;;;;;;1.25;1.15;;;;;;;4.56;34.24;62465.75;5038069;28;20260;-77
2023/03/29 10:15:23;;;;;;;0.68;0.68;;;;;;;4.66;33.53;62478.03;5037197;28;20248;-76
2023/03/29 10:17:59;;;;;;;1.17;1.05;;;;;;;4.68;34.83;62478.09;5039995;28;20236;-76
2023/03/29 10:20:26;;;;;;;0.80;0.80;;;;;;;4.87;32.83;62499.16;5042564;28;20380;-76
2023/03/29 10:22:56;;;;;;;1.85;0.75;;;;;;;4.82;32.59;62491.97;5040075;28;20286;-77
2023/03/29 10:25:27;;;;;;;1.25;0.90;;;;;;;4.66;33.20;62476.03;5044428;28;20207;-76
2023/03/29 10:28:02;;;;;;;1.13;0.88;;;;;;;4.86;33.20;62493.06;5040054;28;20218;-77
2023/03/29 10:30:35;;;;;;;0.73;0.70;;;;;;;5.09;33.72;62526.84;5035764;28;20353;-77
2023/03/29 10:33:02;;;;;;;1.30;1.10;;;;;;;5.08;32.30;62518.75;5035688;28;20224;-76
2023/03/29 10:35:33;;;;;;;1.00;0.82;;;;;;;5.16;32.07;62526.50;5041855;28;20229;-76
2023/03/29 10:38:05;;;;;;;0.60;0.45;;;;;;;4.90;32.55;62505.25;5031317;28;20230;-77
2023/03/29 10:40:34;;;;;;;1.23;0.70;;;;;;;4.86;31.42;62495.59;5040704;28;20193;-76
2023/03/29 10:43:12;;;;;;;0.45;0.45;;;;;;;4.87;33.31;62499.66;5036597;28;20220;-76
2023/03/29 10:45:41;;;;;;;0.55;0.55;;;;;;;4.59;32.62;62471.34;5042372;28;20232;-75
2023/03/29 10:48:12;;;;;;;1.08;0.98;;;;;;;4.74;33.91;62483.75;5039667;28;20245;-76
2023/03/29 10:50:39;;;;;;;0.70;0.70;;;;;;;4.66;31.69;62476.03;5037005;28;20198;-74
2023/03/29 10:53:14;;;;;;;1.70;0.82;;;;;;;4.94;32.43;62503.81;5041662;28;20226;-76
2023/03/29 10:55:52;;;;;;;0.65;0.65;;;;;;;4.97;32.73;62507.41;5038440;28;20243;-75
2023/03/29 10:58:32;;;;;;;0.95;0.85;;;;;;;5.12;31.67;62527.94;5038545;28;20288;-76
2023/03/29 11:01:04;;;;;;;0.52;0.50;;;;;;;5.24;32.09;62537.25;5044316;28;20221;-77
2023/03/29 11:04:04;;;;;;;1.73;1.10;;;;;;;5.39;32.83;62547.63;5041563;28;20427;-76
2023/03/29 11:06:37;;;;;;;3.10;1.40;;;;;;;5.53;32.78;62567.63;5044596;28;20231;-76
2023/03/29 11:09:14;;;;;;;0.73;0.73;;;;;;;5.52;32.79;62561.03;5042041;28;20212;-76
2023/03/29 11:11:54;;;;;;;0.98;0.88;;;;;;;5.64;32.55;62576.44;5041870;28;20234;-77
2023/03/29 11:14:30;;;;;;;0.98;0.98;;;;;;;5.61;32.61;62572.81;5044459;28;20232;-78
2023/03/29 11:17:11;;;;;;;1.65;0.95;;;;;;;5.69;32.11;62581.56;5042715;28;20236;-78
2023/03/29 11:19:57;;;;;;;0.88;0.88;;;;;;;5.60;31.09;62572.31;5050440;28;20222;-77
2023/03/29 11:22:34;;;;;;;1.00;0.85;;;;;;;5.37;31.36;62551.16;5038765;28;20221;-77
2023/03/29 11:25:20;;;;;;;1.73;1.02;;;;;;;5.43;31.81;62551.75;5039936;28;20220;-77
2023/03/29 11:27:52;;;;;;;1.35;1.05;;;;;;;5.56;32.35;62570.72;5041716;28;20221;-77
2023/03/29 11:30:27;;;;;;;1.50;0.98;;;;;;;5.46;29.81;62557.91;5043383;28;20233;-78
2023/03/29 11:33:08;;;;;;;1.30;1.20;;;;;;;5.62;31.02;62574.38;5044026;28;20224;-78
2023/03/29 11:35:46;;;;;;;0.80;0.80;;;;;;;5.81;30.80;62595.97;5042207;28;20443;-78
2023/03/29 11:38:28;;;;;;;0.93;0.90;;;;;;;5.95;32.56;62612.44;5047741;28;20217;-77
2023/03/29 11:41:00;;;;;;;1.33;1.25;;;;;;;5.77;31.63;62592.38;5049572;28;20198;-78
2023/03/29 11:43:33;;;;;;;0.70;0.70;;;;;;;5.85;31.62;62597.56;5046718;28;20222;-77
2023/03/29 11:46:05;;;;;;;1.27;1.17;;;;;;;5.79;31.66;62591.38;5048912;28;20210;-75
2023/03/29 11:48:42;;;;;;;1.85;1.00;;;;;;;5.83;31.21;62595.53;5043906;28;20206;-77
2023/03/29 11:51:18;;;;;;;1.23;1.13;;;;;;;5.72;29.88;62586.69;5050001;28;20228;-78